Asharoken, New York
Current Conditions -  °F | °C
As of 8:53 AM on Wednesday 22 Oct 2014 (Local Time) from KFRG Reporting Station
Light Rain Light Rain  
Wind Chill: 13°   Ceiling: 1300
Heat Index: 13°   Visibility: 10mi
Dew Point: 11°   Wind: 16mph
Humidity: 89%   Direction: 30°NNE
Pressure: 29.92"   Gusts: 24mph
Location:  40.9096°N, 73.3231°W
Report Text: KFRG 221253Z 03014G21KT 10SM -RA OVC013 13/11 A2992 RMK AO2 LTG DSNT W SLP132 P0006 T01280111
Loading
Personal Weather Stations






























Interactive Weather Map
Tropical Storm Tracking
New forecast layout! Learn more

10-Day Weather Forecast

Advertisements
Track Severe Weather on mobile